createdAt,value
2023-08-06T00:00:40.612Z,17.46
2023-08-06T00:03:16.127Z,18.40
2023-08-06T00:06:03.217Z,19.33
2023-08-06T00:08:31.793Z,19.65
2023-08-06T00:11:01.713Z,19.32
2023-08-06T00:13:30.280Z,19.26
2023-08-06T00:16:13.011Z,19.17
2023-08-06T00:18:42.088Z,19.29
2023-08-06T00:21:14.524Z,19.33
2023-08-06T00:23:48.716Z,19.60
2023-08-06T00:26:21.020Z,18.99
2023-08-06T00:28:49.571Z,19.05
2023-08-06T00:31:18.159Z,18.55
2023-08-06T00:33:58.730Z,19.41
2023-08-06T00:36:27.271Z,18.76
2023-08-06T00:38:56.866Z,19.20
2023-08-06T00:41:26.909Z,19.62
2023-08-06T00:43:55.525Z,19.91
2023-08-06T00:46:24.318Z,19.96
2023-08-06T00:48:54.077Z,20.12
2023-08-06T00:51:24.244Z,20.18
2023-08-06T00:53:54.533Z,20.27
2023-08-06T00:56:23.124Z,20.30
2023-08-06T00:58:55.988Z,20.13
2023-08-06T01:01:24.603Z,19.91
2023-08-06T01:03:53.220Z,19.91
2023-08-06T01:06:27.247Z,20.10
2023-08-06T01:09:00.837Z,20.18
2023-08-06T01:11:40.492Z,20.24
2023-08-06T01:14:25.776Z,20.05
2023-08-06T01:16:55.487Z,20.03
2023-08-06T01:19:24.418Z,19.75
2023-08-06T01:21:54.574Z,19.12
2023-08-06T01:24:23.586Z,19.46
2023-08-06T01:27:04.569Z,19.64
2023-08-06T01:29:37.459Z,19.17
2023-08-06T01:32:12.000Z,19.43
2023-08-06T01:34:43.745Z,19.66
2023-08-06T01:37:14.521Z,19.75
2023-08-06T01:39:45.023Z,19.44
2023-08-06T01:42:15.850Z,19.48
2023-08-06T01:44:44.405Z,19.36
2023-08-06T01:47:13.631Z,19.48
2023-08-06T01:49:42.154Z,19.70
2023-08-06T01:52:17.949Z,19.93
2023-08-06T01:54:52.535Z,19.94
2023-08-06T01:57:21.082Z,19.77
2023-08-06T01:59:49.649Z,19.72
2023-08-06T02:02:18.197Z,19.05
2023-08-06T02:04:46.750Z,19.45
2023-08-06T02:07:15.296Z,19.42
2023-08-06T02:09:51.346Z,19.28
2023-08-06T02:12:19.917Z,19.67
2023-08-06T02:14:48.432Z,18.80
2023-08-06T02:17:22.201Z,19.30
2023-08-06T02:19:50.807Z,19.36
2023-08-06T02:22:19.326Z,18.86
2023-08-06T02:24:48.089Z,19.31
2023-08-06T02:27:20.857Z,19.70
2023-08-06T02:29:49.528Z,19.77
2023-08-06T02:32:18.113Z,19.73
2023-08-06T02:34:49.766Z,19.94
2023-08-06T02:37:18.303Z,20.00
2023-08-06T02:39:46.853Z,20.05
2023-08-06T02:42:19.743Z,20.10
2023-08-06T02:44:48.372Z,19.51
2023-08-06T02:47:16.907Z,19.84
2023-08-06T02:49:48.688Z,19.96
2023-08-06T02:52:17.265Z,19.89
2023-08-06T02:54:45.869Z,19.87
2023-08-06T02:57:24.958Z,19.96
2023-08-06T03:00:02.439Z,20.10
2023-08-06T03:02:43.308Z,20.14
2023-08-06T03:05:19.293Z,19.67
2023-08-06T03:07:50.907Z,19.35
2023-08-06T03:10:22.458Z,19.79
2023-08-06T03:12:55.546Z,18.91
2023-08-06T03:15:24.084Z,19.41
2023-08-06T03:17:58.985Z,19.82
2023-08-06T03:20:28.458Z,19.99
2023-08-06T03:22:56.978Z,20.13
2023-08-06T03:25:25.490Z,20.23
2023-08-06T03:27:55.372Z,20.33
2023-08-06T03:30:23.916Z,20.35
2023-08-06T03:32:58.666Z,20.30
2023-08-06T03:35:27.285Z,20.22
2023-08-06T03:37:55.880Z,20.26
2023-08-06T03:40:27.603Z,19.78
2023-08-06T03:42:57.477Z,19.51
2023-08-06T03:45:29.153Z,19.69
2023-08-06T03:48:03.833Z,18.93
2023-08-06T03:50:35.241Z,18.35
2023-08-06T03:53:09.407Z,17.93
2023-08-06T03:55:40.948Z,18.31
2023-08-06T03:58:18.386Z,17.31
2023-08-06T04:01:01.915Z,17.57
2023-08-06T04:03:33.389Z,18.31
2023-08-06T04:06:02.196Z,18.75
2023-08-06T04:08:30.776Z,18.90
2023-08-06T04:11:02.060Z,18.31
2023-08-06T04:13:40.468Z,18.79
2023-08-06T04:16:09.057Z,18.04
2023-08-06T04:18:40.476Z,18.25
2023-08-06T04:21:11.197Z,18.77
2023-08-06T04:23:39.861Z,19.19
2023-08-06T04:26:16.010Z,19.71
2023-08-06T04:28:46.079Z,20.01
2023-08-06T04:31:14.696Z,20.12
2023-08-06T04:33:43.305Z,20.29
2023-08-06T04:36:11.831Z,20.28
2023-08-06T04:38:42.695Z,20.32
2023-08-06T04:41:11.287Z,20.31
2023-08-06T04:43:42.990Z,20.33
2023-08-06T04:46:12.983Z,20.34
2023-08-06T04:48:46.719Z,20.38
2023-08-06T04:51:15.379Z,20.39
2023-08-06T04:53:43.893Z,20.41
2023-08-06T04:56:17.727Z,20.39
2023-08-06T04:58:46.329Z,20.38
2023-08-06T05:01:16.325Z,20.34
2023-08-06T05:03:44.898Z,20.28
2023-08-06T05:06:16.566Z,20.21
2023-08-06T05:08:45.141Z,20.18
2023-08-06T05:11:13.749Z,20.21
2023-08-06T05:13:47.881Z,20.22
2023-08-06T05:16:17.916Z,20.29
2023-08-06T05:18:46.598Z,20.37
2023-08-06T05:21:15.152Z,20.34
2023-08-06T05:23:46.641Z,20.30
2023-08-06T05:26:19.693Z,20.41
2023-08-06T05:28:48.265Z,19.09
2023-08-06T05:31:20.525Z,18.70
2023-08-06T05:33:49.095Z,18.68
2023-08-06T05:36:18.903Z,18.83
2023-08-06T05:38:47.593Z,19.27
2023-08-06T05:41:16.194Z,18.61
2023-08-06T05:43:44.759Z,18.37
2023-08-06T05:46:17.784Z,18.12
2023-08-06T05:48:46.356Z,18.68
2023-08-06T05:51:17.917Z,19.19
2023-08-06T05:53:50.497Z,17.96
2023-08-06T05:56:25.040Z,18.20
2023-08-06T05:58:56.692Z,18.71
2023-08-06T06:01:26.895Z,19.46
2023-08-06T06:04:01.416Z,20.37
2023-08-06T06:06:29.940Z,20.50
2023-08-06T06:09:01.547Z,21.60
2023-08-06T06:11:30.090Z,21.12
2023-08-06T06:14:10.786Z,21.02
2023-08-06T06:16:43.172Z,21.12
2023-08-06T06:19:14.832Z,21.04
2023-08-06T06:21:48.649Z,21.70
2023-08-06T06:24:20.189Z,21.93
2023-08-06T06:26:48.713Z,21.47
2023-08-06T06:29:20.234Z,22.68
2023-08-06T06:31:56.525Z,24.58
2023-08-06T06:34:28.402Z,24.82
2023-08-06T06:37:03.197Z,24.37
2023-08-06T06:39:37.718Z,22.58
2023-08-06T06:42:07.028Z,20.89
2023-08-06T06:44:35.561Z,21.79
2023-08-06T06:47:05.948Z,20.46
2023-08-06T06:49:40.263Z,19.87
2023-08-06T06:52:16.511Z,19.44
2023-08-06T06:54:48.097Z,19.62
2023-08-06T06:57:24.126Z,20.04
2023-08-06T06:59:58.307Z,19.76
2023-08-06T07:02:28.203Z,19.83
2023-08-06T07:04:59.576Z,19.37
2023-08-06T07:07:31.216Z,20.21
2023-08-06T07:10:06.883Z,21.99
2023-08-06T07:12:38.770Z,21.58
2023-08-06T07:15:08.608Z,22.16
2023-08-06T07:17:46.112Z,20.98
2023-08-06T07:20:14.690Z,21.85
2023-08-06T07:22:43.249Z,23.22
2023-08-06T07:25:11.790Z,23.72
2023-08-06T07:27:40.538Z,23.10
2023-08-06T07:30:09.989Z,19.80
2023-08-06T07:32:39.892Z,19.79
2023-08-06T07:35:13.722Z,19.23
2023-08-06T07:37:50.648Z,19.43
2023-08-06T07:40:20.239Z,19.70
2023-08-06T07:42:51.879Z,20.37
2023-08-06T07:45:20.657Z,19.91
2023-08-06T07:47:56.549Z,19.75
2023-08-06T07:50:25.118Z,19.35
2023-08-06T07:52:53.652Z,20.24
2023-08-06T07:55:22.202Z,20.68
2023-08-06T07:57:50.786Z,20.69
2023-08-06T08:00:20.246Z,21.15
2023-08-06T08:02:56.182Z,21.87
2023-08-06T08:05:24.775Z,21.65
2023-08-06T08:07:53.295Z,21.19
2023-08-06T08:10:21.861Z,22.30
2023-08-06T08:12:50.443Z,22.71
2023-08-06T08:15:19.340Z,22.95
2023-08-06T08:17:48.806Z,22.95
2023-08-06T08:20:20.115Z,23.70
2023-08-06T08:22:57.592Z,23.43
2023-08-06T08:25:35.314Z,21.83
2023-08-06T08:28:03.993Z,21.79
2023-08-06T08:30:32.631Z,22.01
2023-08-06T08:33:04.040Z,21.49
2023-08-06T08:35:33.990Z,21.12
2023-08-06T08:38:05.647Z,20.94
2023-08-06T08:40:45.670Z,21.09
2023-08-06T08:43:17.275Z,20.90
2023-08-06T08:45:50.829Z,20.66
2023-08-06T08:48:20.510Z,20.53
2023-08-06T08:50:52.366Z,20.36
2023-08-06T08:53:28.962Z,19.99
2023-08-06T08:55:58.402Z,20.00
2023-08-06T08:58:35.021Z,19.20
2023-08-06T09:01:03.666Z,20.31
2023-08-06T09:03:33.040Z,20.60
2023-08-06T09:06:05.179Z,19.77
2023-08-06T09:08:38.658Z,19.76
2023-08-06T09:11:11.255Z,19.68
2023-08-06T09:13:40.720Z,20.86
2023-08-06T09:16:09.371Z,20.40
2023-08-06T09:18:43.944Z,20.83
2023-08-06T09:21:18.333Z,21.15
2023-08-06T09:23:46.911Z,20.31
2023-08-06T09:26:23.304Z,21.07
2023-08-06T09:28:51.852Z,20.05
2023-08-06T09:31:20.453Z,19.88
2023-08-06T09:33:50.583Z,20.25
2023-08-06T09:36:20.518Z,19.75
2023-08-06T09:38:49.073Z,18.87
2023-08-06T09:41:30.241Z,18.50
2023-08-06T09:44:01.925Z,19.50
2023-08-06T09:46:34.263Z,20.52
2023-08-06T09:49:02.953Z,20.58
2023-08-06T09:51:33.259Z,20.92
2023-08-06T09:54:20.979Z,20.12
2023-08-06T09:56:55.819Z,21.51
2023-08-06T09:59:25.390Z,21.31
2023-08-06T10:01:56.239Z,21.44
2023-08-06T10:04:30.859Z,20.28
2023-08-06T10:07:08.663Z,20.68
2023-08-06T10:09:40.217Z,19.55
2023-08-06T10:12:09.543Z,20.04
2023-08-06T10:14:45.485Z,19.94
2023-08-06T10:17:14.856Z,20.00
2023-08-06T10:19:46.542Z,20.42
2023-08-06T10:22:18.395Z,20.07
2023-08-06T10:24:54.148Z,20.38
2023-08-06T10:27:24.387Z,20.03
2023-08-06T10:29:52.961Z,19.54
2023-08-06T10:32:23.179Z,19.16
2023-08-06T10:35:04.268Z,18.37
2023-08-06T10:37:39.364Z,18.48
2023-08-06T10:40:10.030Z,18.53
2023-08-06T10:42:44.693Z,18.50
2023-08-06T10:45:18.261Z,17.82
2023-08-06T10:47:47.362Z,18.19
2023-08-06T10:50:17.915Z,17.71
2023-08-06T10:52:48.571Z,18.03
2023-08-06T10:55:24.306Z,17.58
2023-08-06T10:57:57.119Z,17.49
2023-08-06T11:00:26.084Z,17.22
2023-08-06T11:03:00.913Z,17.28
2023-08-06T11:05:29.542Z,17.82
2023-08-06T11:08:05.106Z,17.79
2023-08-06T11:10:36.080Z,17.76
2023-08-06T11:13:08.799Z,17.45
2023-08-06T11:15:37.752Z,17.73
2023-08-06T11:18:12.685Z,18.02
2023-08-06T11:20:41.910Z,18.16
2023-08-06T11:23:14.896Z,17.07
2023-08-06T11:25:49.525Z,17.71
2023-08-06T11:28:18.329Z,17.80
2023-08-06T11:30:50.041Z,17.23
2023-08-06T11:33:23.811Z,17.75
2023-08-06T11:35:54.660Z,17.18
2023-08-06T11:38:26.682Z,17.42
2023-08-06T11:40:58.290Z,17.23
2023-08-06T11:43:26.920Z,17.55
2023-08-06T11:45:57.729Z,16.87
2023-08-06T11:48:26.337Z,17.17
2023-08-06T11:50:58.882Z,16.80
2023-08-06T11:53:31.285Z,16.73
2023-08-06T11:56:02.822Z,16.62
2023-08-06T11:58:32.323Z,17.53
2023-08-06T12:01:03.535Z,17.63
2023-08-06T12:03:41.330Z,17.54
2023-08-06T12:06:10.118Z,17.25
2023-08-06T12:08:43.557Z,17.28
2023-08-06T12:11:12.142Z,17.58
2023-08-06T12:13:43.644Z,18.13
2023-08-06T12:16:14.790Z,17.70
2023-08-06T12:18:46.431Z,17.75
2023-08-06T12:21:14.994Z,17.61
2023-08-06T12:23:45.221Z,17.59
2023-08-06T12:26:13.784Z,17.54
2023-08-06T12:28:42.293Z,16.92
2023-08-06T12:31:12.562Z,17.20
2023-08-06T12:33:43.980Z,17.82
2023-08-06T12:36:12.523Z,17.60
2023-08-06T12:38:41.096Z,17.65
2023-08-06T12:41:17.196Z,17.98
2023-08-06T12:43:45.789Z,17.70
2023-08-06T12:46:14.558Z,18.06
2023-08-06T12:48:55.038Z,17.97
2023-08-06T12:51:23.847Z,18.03
2023-08-06T12:53:52.416Z,17.52
2023-08-06T12:56:25.180Z,17.40
2023-08-06T12:58:59.702Z,17.99
2023-08-06T13:01:31.073Z,17.60
2023-08-06T13:04:19.421Z,17.77
2023-08-06T13:06:56.010Z,17.85
2023-08-06T13:09:24.729Z,17.60
2023-08-06T13:11:57.266Z,17.72
2023-08-06T13:14:25.991Z,17.42
2023-08-06T13:17:02.840Z,17.27
2023-08-06T13:19:31.365Z,17.73
2023-08-06T13:22:08.086Z,17.58
2023-08-06T13:24:45.776Z,17.72
2023-08-06T13:27:15.657Z,17.04
2023-08-06T13:29:44.223Z,17.40
2023-08-06T13:32:12.764Z,18.00
2023-08-06T13:34:44.391Z,17.56
2023-08-06T13:37:12.991Z,16.98
2023-08-06T13:39:41.705Z,17.82
2023-08-06T13:42:14.509Z,18.21
2023-08-06T13:44:43.062Z,17.99
2023-08-06T13:47:11.615Z,17.48
2023-08-06T13:49:43.193Z,17.60
2023-08-06T13:52:22.013Z,17.89
2023-08-06T13:54:51.380Z,17.43
2023-08-06T13:57:26.921Z,17.33
2023-08-06T14:00:01.369Z,17.95
2023-08-06T14:02:42.268Z,17.89
2023-08-06T14:05:11.099Z,18.07
2023-08-06T14:07:42.907Z,17.24
2023-08-06T14:10:11.788Z,17.65
2023-08-06T14:13:08.966Z,17.59
2023-08-06T14:15:47.979Z,17.84
2023-08-06T14:18:19.216Z,17.58
2023-08-06T14:20:47.871Z,18.16
2023-08-06T14:23:16.408Z,18.47
2023-08-06T14:25:44.993Z,18.41
2023-08-06T14:28:14.947Z,18.57
2023-08-06T14:30:43.445Z,18.18
2023-08-06T14:33:25.328Z,18.41
2023-08-06T14:35:58.779Z,19.15
2023-08-06T14:38:30.428Z,18.64
2023-08-06T14:41:13.815Z,18.54
2023-08-06T14:43:46.492Z,18.08
2023-08-06T14:46:15.218Z,18.39
2023-08-06T14:48:46.584Z,17.76
2023-08-06T14:51:15.167Z,18.63
2023-08-06T14:53:46.546Z,18.16
2023-08-06T14:56:15.084Z,18.47
2023-08-06T14:58:48.112Z,18.33
2023-08-06T15:01:16.672Z,18.80
2023-08-06T15:03:45.226Z,18.42
2023-08-06T15:06:13.759Z,18.45
2023-08-06T15:08:49.479Z,18.98
2023-08-06T15:11:18.210Z,18.52
2023-08-06T15:13:54.307Z,18.48
2023-08-06T15:16:25.710Z,19.13
2023-08-06T15:18:54.480Z,18.87
2023-08-06T15:21:26.184Z,18.91
2023-08-06T15:24:00.859Z,18.94
2023-08-06T15:26:31.580Z,19.08
2023-08-06T15:29:01.811Z,18.84
2023-08-06T15:31:39.051Z,18.96
2023-08-06T15:34:13.605Z,18.12
2023-08-06T15:36:42.126Z,18.49
2023-08-06T15:39:12.601Z,18.40
2023-08-06T15:41:43.625Z,18.42
2023-08-06T15:44:13.555Z,19.34
2023-08-06T15:46:44.976Z,18.67
2023-08-06T15:49:16.638Z,19.20
2023-08-06T15:51:45.154Z,18.54
2023-08-06T15:54:19.658Z,18.94
2023-08-06T15:56:47.214Z,18.93
2023-08-06T15:59:30.228Z,19.26
2023-08-06T16:02:14.321Z,18.71
2023-08-06T16:04:42.905Z,18.94
2023-08-06T16:07:11.496Z,18.96
2023-08-06T16:09:43.108Z,18.96
2023-08-06T16:12:11.684Z,18.83
2023-08-06T16:14:42.900Z,18.88
2023-08-06T16:17:11.462Z,18.16
2023-08-06T16:19:43.601Z,18.16
2023-08-06T16:22:12.229Z,18.71
2023-08-06T16:24:46.967Z,18.74
2023-08-06T16:27:15.524Z,18.30
2023-08-06T16:29:49.256Z,18.22
2023-08-06T16:32:17.940Z,18.53
2023-08-06T16:34:46.818Z,18.39
2023-08-06T16:37:15.422Z,18.45
2023-08-06T16:39:47.053Z,18.45
2023-08-06T16:42:15.582Z,17.93
2023-08-06T16:44:51.402Z,17.78
2023-08-06T16:47:29.151Z,18.27
2023-08-06T16:49:57.709Z,18.57
2023-08-06T16:52:26.269Z,18.22
2023-08-06T16:54:57.228Z,18.38
2023-08-06T16:57:28.829Z,18.33
2023-08-06T17:00:01.726Z,18.37
2023-08-06T17:02:30.299Z,18.26
2023-08-06T17:05:14.397Z,18.03
2023-08-06T17:07:44.962Z,18.10
2023-08-06T17:10:13.522Z,18.03
2023-08-06T17:12:45.772Z,18.14
2023-08-06T17:15:15.754Z,17.78
2023-08-06T17:17:44.543Z,18.11
2023-08-06T17:20:13.688Z,18.12
2023-08-06T17:22:45.383Z,17.39
2023-08-06T17:25:16.760Z,17.97
2023-08-06T17:27:45.573Z,17.48
2023-08-06T17:30:20.064Z,17.64
2023-08-06T17:32:48.665Z,17.52
2023-08-06T17:35:17.299Z,17.17
2023-08-06T17:37:45.867Z,17.12
2023-08-06T17:40:14.429Z,17.68
2023-08-06T17:42:45.756Z,17.74
2023-08-06T17:45:22.071Z,17.54
2023-08-06T17:47:53.792Z,17.36
2023-08-06T17:50:22.357Z,17.05
2023-08-06T17:52:51.490Z,17.58
2023-08-06T17:55:20.141Z,17.17
2023-08-06T17:57:48.653Z,17.85
2023-08-06T18:00:18.635Z,17.44
2023-08-06T18:02:47.182Z,16.49
2023-08-06T18:05:16.762Z,16.94
2023-08-06T18:07:46.645Z,16.80
2023-08-06T18:10:15.722Z,16.67
2023-08-06T18:12:47.383Z,17.35
2023-08-06T18:15:17.310Z,16.87
2023-08-06T18:17:46.501Z,16.82
2023-08-06T18:20:15.186Z,17.41
2023-08-06T18:22:43.786Z,17.19
2023-08-06T18:25:15.327Z,17.47
2023-08-06T18:27:47.916Z,17.39
2023-08-06T18:30:20.682Z,16.94
2023-08-06T18:32:49.973Z,16.71
2023-08-06T18:35:19.400Z,16.30
2023-08-06T18:37:57.357Z,16.43
2023-08-06T18:40:30.246Z,16.79
2023-08-06T18:43:05.116Z,16.81
2023-08-06T18:45:42.608Z,16.84
2023-08-06T18:48:17.368Z,17.07
2023-08-06T18:50:45.995Z,16.76
2023-08-06T18:53:14.554Z,17.42
2023-08-06T18:55:49.596Z,16.65
2023-08-06T18:58:24.957Z,16.27
2023-08-06T19:01:07.118Z,16.75
2023-08-06T19:03:35.808Z,16.53
2023-08-06T19:06:07.239Z,16.90
2023-08-06T19:08:41.891Z,16.85
2023-08-06T19:11:13.350Z,16.74
2023-08-06T19:13:41.909Z,16.41
2023-08-06T19:16:14.672Z,16.56
2023-08-06T19:18:46.018Z,16.39
2023-08-06T19:21:14.547Z,16.19
2023-08-06T19:23:43.075Z,16.08
2023-08-06T19:26:14.481Z,16.60
2023-08-06T19:28:43.021Z,16.64
2023-08-06T19:31:12.953Z,16.94
2023-08-06T19:33:44.363Z,16.60
2023-08-06T19:36:12.960Z,16.95
2023-08-06T19:38:41.555Z,16.64
2023-08-06T19:41:11.201Z,16.58
2023-08-06T19:43:43.307Z,16.57
2023-08-06T19:46:13.227Z,16.41
2023-08-06T19:48:44.551Z,16.87
2023-08-06T19:51:13.230Z,16.99
2023-08-06T19:53:44.935Z,16.87
2023-08-06T19:56:13.459Z,16.49
2023-08-06T19:58:45.195Z,16.38
2023-08-06T20:01:15.130Z,16.83
2023-08-06T20:03:44.622Z,16.56
2023-08-06T20:06:14.198Z,16.40
2023-08-06T20:08:42.787Z,16.73
2023-08-06T20:11:13.584Z,16.31
2023-08-06T20:13:42.148Z,16.72
2023-08-06T20:16:11.437Z,16.60
2023-08-06T20:18:44.075Z,16.26
2023-08-06T20:21:15.780Z,16.60
2023-08-06T20:23:44.630Z,16.00
2023-08-06T20:26:15.916Z,16.22
2023-08-06T20:28:44.479Z,16.14
2023-08-06T20:31:15.912Z,16.12
2023-08-06T20:33:48.111Z,15.86
2023-08-06T20:36:16.664Z,16.27
2023-08-06T20:38:47.122Z,16.60
2023-08-06T20:41:20.659Z,16.51
2023-08-06T20:43:52.031Z,16.17
2023-08-06T20:46:23.610Z,16.29
2023-08-06T20:48:53.562Z,16.36
2023-08-06T20:51:22.146Z,15.78
2023-08-06T20:53:50.688Z,16.02
2023-08-06T20:56:19.507Z,15.83
2023-08-06T20:58:48.107Z,15.70
2023-08-06T21:01:16.768Z,16.55
2023-08-06T21:03:45.326Z,16.09
2023-08-06T21:06:18.076Z,15.88
2023-08-06T21:08:52.906Z,16.03
2023-08-06T21:11:24.364Z,16.29
2023-08-06T21:13:52.932Z,15.85
2023-08-06T21:16:42.839Z,15.73
2023-08-06T21:19:11.594Z,16.00
2023-08-06T21:21:42.023Z,15.70
2023-08-06T21:24:10.563Z,16.02
2023-08-06T21:26:45.035Z,15.45
2023-08-06T21:29:13.555Z,15.53
2023-08-06T21:31:42.108Z,15.66
2023-08-06T21:34:16.954Z,15.55
2023-08-06T21:36:51.503Z,15.79
2023-08-06T21:39:20.293Z,15.87
2023-08-06T21:41:55.080Z,15.86
2023-08-06T21:44:23.767Z,16.01
2023-08-06T21:46:53.589Z,15.63
2023-08-06T21:49:25.341Z,16.13
2023-08-06T21:51:57.135Z,15.95
2023-08-06T21:54:26.016Z,14.92
2023-08-06T21:56:54.602Z,15.70
2023-08-06T21:59:23.158Z,15.43
2023-08-06T22:01:54.668Z,15.95
2023-08-06T22:04:32.257Z,15.95
2023-08-06T22:07:02.124Z,15.65
2023-08-06T22:09:33.960Z,15.51
2023-08-06T22:12:05.916Z,15.70
2023-08-06T22:14:34.446Z,15.42
2023-08-06T22:17:06.214Z,15.67
2023-08-06T22:19:35.050Z,15.20
2023-08-06T22:22:05.223Z,15.79
2023-08-06T22:24:39.713Z,15.95
2023-08-06T22:27:08.592Z,15.83
2023-08-06T22:29:39.866Z,15.05
2023-08-06T22:32:20.260Z,15.78
2023-08-06T22:34:51.557Z,16.26
2023-08-06T22:37:21.496Z,15.14
2023-08-06T22:39:50.200Z,15.41
2023-08-06T22:42:19.168Z,14.92
2023-08-06T22:44:47.773Z,14.95
2023-08-06T22:47:16.408Z,14.09
2023-08-06T22:49:45.601Z,15.40
2023-08-06T22:52:14.176Z,15.38
2023-08-06T22:54:51.658Z,15.39
2023-08-06T22:57:27.810Z,15.14
2023-08-06T22:59:56.926Z,14.64
2023-08-06T23:02:31.517Z,14.96
2023-08-06T23:05:00.146Z,15.05
2023-08-06T23:07:28.689Z,14.86
2023-08-06T23:09:58.667Z,15.16
2023-08-06T23:12:30.072Z,14.68
2023-08-06T23:15:00.705Z,15.35
2023-08-06T23:17:29.253Z,15.41
2023-08-06T23:20:04.771Z,14.99
2023-08-06T23:22:33.349Z,15.70
2023-08-06T23:25:03.274Z,15.70
2023-08-06T23:27:31.814Z,15.44
2023-08-06T23:30:00.396Z,14.90
2023-08-06T23:32:32.984Z,14.59
2023-08-06T23:35:07.700Z,15.57
2023-08-06T23:37:44.924Z,14.84
2023-08-06T23:40:15.108Z,15.03
2023-08-06T23:42:43.644Z,14.90
2023-08-06T23:45:12.664Z,15.30
2023-08-06T23:47:41.249Z,15.39
2023-08-06T23:50:10.500Z,15.26
2023-08-06T23:52:39.124Z,15.05
2023-08-06T23:55:15.331Z,15.25
2023-08-06T23:57:47.057Z,15.43
